createdAt,value
2018-12-17T00:00:46.422Z,-0.19
2018-12-17T00:03:13.827Z,-0.26
2018-12-17T00:05:41.845Z,-0.19
2018-12-17T00:08:09.551Z,-0.24
2018-12-17T00:10:36.961Z,-0.22
2018-12-17T00:13:04.374Z,-0.19
2018-12-17T00:15:31.794Z,-0.22
2018-12-17T00:17:59.220Z,-0.23
2018-12-17T00:20:26.646Z,-0.21
2018-12-17T00:22:54.070Z,-0.33
2018-12-17T00:25:21.473Z,-0.30
2018-12-17T00:27:48.888Z,-0.21
2018-12-17T00:30:16.307Z,-0.20
2018-12-17T00:32:43.711Z,-0.22
2018-12-17T00:35:11.146Z,-0.16
2018-12-17T00:37:38.548Z,-0.15
2018-12-17T00:40:07.064Z,-0.19
2018-12-17T00:42:34.467Z,-0.17
2018-12-17T00:45:01.883Z,-0.19
2018-12-17T00:47:29.376Z,-0.24
2018-12-17T00:49:56.794Z,-0.21
2018-12-17T00:52:24.232Z,-0.19
2018-12-17T00:54:51.637Z,-0.19
2018-12-17T00:57:19.054Z,-0.27
2018-12-17T00:59:46.474Z,-0.36
2018-12-17T01:02:13.883Z,-0.33
2018-12-17T01:04:41.291Z,-0.31
2018-12-17T01:07:08.697Z,-0.20
2018-12-17T01:09:36.099Z,-0.14
2018-12-17T01:12:03.517Z,-0.19
2018-12-17T01:14:30.906Z,-0.09
2018-12-17T01:16:58.321Z,-0.10
2018-12-17T01:19:26.418Z,-0.09
2018-12-17T01:21:54.128Z,-0.10
2018-12-17T01:24:21.539Z,-0.12
2018-12-17T01:26:48.969Z,-0.16
2018-12-17T01:29:16.372Z,-0.24
2018-12-17T01:31:43.796Z,-0.18
2018-12-17T01:34:11.241Z,-0.18
2018-12-17T01:36:38.617Z,-0.22
2018-12-17T01:39:06.251Z,-0.15
2018-12-17T01:41:33.660Z,-0.08
2018-12-17T01:44:01.063Z,-0.16
2018-12-17T01:46:28.494Z,-0.12
2018-12-17T01:48:55.890Z,-0.16
2018-12-17T01:51:23.313Z,-0.09
2018-12-17T01:53:50.718Z,-0.14
2018-12-17T01:56:18.131Z,-0.14
2018-12-17T01:58:45.648Z,-0.10
2018-12-17T02:01:13.132Z,-0.18
2018-12-17T02:03:41.633Z,-0.25
2018-12-17T02:06:09.062Z,-0.17
2018-12-17T02:08:36.557Z,-0.18
2018-12-17T02:11:04.754Z,-0.12
2018-12-17T02:13:32.177Z,-0.23
2018-12-17T02:15:59.601Z,-0.26
2018-12-17T02:18:27.000Z,-0.19
2018-12-17T02:20:54.430Z,-0.19
2018-12-17T02:23:21.836Z,-0.19
2018-12-17T02:25:49.254Z,-0.11
2018-12-17T02:28:16.659Z,-0.15
2018-12-17T02:30:44.066Z,-0.21
2018-12-17T02:33:11.460Z,-0.23
2018-12-17T02:35:38.870Z,-0.23
2018-12-17T02:38:06.265Z,-0.19
2018-12-17T02:40:33.674Z,-0.19
2018-12-17T02:43:01.083Z,-0.26
2018-12-17T02:45:28.495Z,-0.27
2018-12-17T02:47:55.978Z,-0.35
2018-12-17T02:50:23.411Z,-0.28
2018-12-17T02:52:50.810Z,-0.14
2018-12-17T02:55:18.229Z,-0.21
2018-12-17T02:57:45.625Z,-0.15
2018-12-17T03:00:13.133Z,-0.06
2018-12-17T03:02:40.526Z,-0.04
2018-12-17T03:05:08.031Z,-0.12
2018-12-17T03:07:35.439Z,-0.15
2018-12-17T03:10:02.942Z,-0.13
2018-12-17T03:12:30.338Z,-0.05
2018-12-17T03:14:57.742Z,-0.08
2018-12-17T03:17:25.153Z,-0.11
2018-12-17T03:19:52.549Z,-0.19
2018-12-17T03:22:19.953Z,-0.15
2018-12-17T03:24:47.363Z,-0.17
2018-12-17T03:27:14.769Z,-0.21
2018-12-17T03:29:42.262Z,-0.25
2018-12-17T03:32:09.672Z,-0.30
2018-12-17T03:34:37.139Z,-0.31
2018-12-17T03:37:04.564Z,-0.30
2018-12-17T03:39:32.065Z,-0.30
2018-12-17T03:41:59.501Z,-0.21
2018-12-17T03:44:26.993Z,-0.21
2018-12-17T03:46:54.404Z,-0.15
2018-12-17T03:49:21.825Z,-0.10
2018-12-17T03:51:49.235Z,-0.06
2018-12-17T03:54:16.625Z,-0.11
2018-12-17T03:56:44.050Z,-0.05
2018-12-17T03:59:11.458Z,-0.01
2018-12-17T04:01:38.849Z,-0.04
2018-12-17T04:04:06.247Z,-0.01
2018-12-17T04:06:33.650Z,0.03
2018-12-17T04:09:01.038Z,0.00
2018-12-17T04:11:28.427Z,-0.01
2018-12-17T04:13:55.821Z,-0.02
2018-12-17T04:16:23.236Z,-0.02
2018-12-17T04:18:50.755Z,-0.02
2018-12-17T04:21:18.182Z,-0.02
2018-12-17T04:23:45.686Z,-0.05
2018-12-17T04:26:13.163Z,0.03
2018-12-17T04:28:40.661Z,-0.02
2018-12-17T04:31:08.050Z,0.02
2018-12-17T04:33:35.452Z,-0.04
2018-12-17T04:36:02.859Z,0.03
2018-12-17T04:38:30.250Z,0.05
2018-12-17T04:40:57.694Z,0.04
2018-12-17T04:43:25.106Z,0.02
2018-12-17T04:45:52.510Z,-0.05
2018-12-17T04:48:19.911Z,-0.10
2018-12-17T04:50:47.374Z,-0.11
2018-12-17T04:53:14.791Z,-0.03
2018-12-17T04:55:42.218Z,-0.01
2018-12-17T04:58:09.626Z,-0.02
2018-12-17T05:00:37.044Z,-0.10
2018-12-17T05:03:04.457Z,-0.14
2018-12-17T05:05:31.966Z,-0.16
2018-12-17T05:07:59.390Z,-0.16
2018-12-17T05:10:26.797Z,-0.10
2018-12-17T05:12:54.218Z,-0.05
2018-12-17T05:15:21.623Z,-0.04
2018-12-17T05:17:49.043Z,0.02
2018-12-17T05:20:16.439Z,-0.03
2018-12-17T05:22:43.854Z,0.02
2018-12-17T05:25:11.276Z,-0.04
2018-12-17T05:27:38.779Z,-0.05
2018-12-17T05:30:06.579Z,-0.04
2018-12-17T05:32:33.981Z,-0.01
2018-12-17T05:35:01.473Z,-0.05
2018-12-17T05:37:28.955Z,-0.11
2018-12-17T05:39:56.357Z,-0.07
2018-12-17T05:42:23.761Z,-0.09
2018-12-17T05:44:51.170Z,-0.04
2018-12-17T05:47:18.654Z,0.02
2018-12-17T05:49:46.048Z,0.14
2018-12-17T05:52:13.522Z,0.15
2018-12-17T05:54:40.923Z,0.15
2018-12-17T05:57:08.320Z,0.16
2018-12-17T05:59:35.721Z,0.24
2018-12-17T06:02:03.127Z,0.24
2018-12-17T06:04:30.550Z,0.24
2018-12-17T06:06:57.943Z,0.13
2018-12-17T06:09:25.519Z,0.00
2018-12-17T06:11:53.097Z,0.05
2018-12-17T06:14:20.497Z,-0.02
2018-12-17T06:16:47.891Z,-0.02
2018-12-17T06:19:15.300Z,-0.07
2018-12-17T06:21:42.698Z,-0.07
2018-12-17T06:24:10.101Z,-0.09
2018-12-17T06:26:37.510Z,-0.01
2018-12-17T06:29:04.907Z,0.02
2018-12-17T06:31:32.334Z,0.03
2018-12-17T06:33:59.744Z,0.10
2018-12-17T06:36:27.144Z,0.16
2018-12-17T06:38:54.543Z,0.16
2018-12-17T06:41:21.972Z,0.19
2018-12-17T06:43:49.365Z,0.21
2018-12-17T06:46:16.791Z,0.23
2018-12-17T06:48:44.185Z,0.23
2018-12-17T06:51:11.574Z,0.23
2018-12-17T06:53:39.683Z,0.25
2018-12-17T06:56:07.111Z,0.28
2018-12-17T06:58:34.506Z,0.31
2018-12-17T07:01:01.897Z,0.36
2018-12-17T07:03:29.307Z,0.28
2018-12-17T07:05:56.695Z,0.25
2018-12-17T07:08:24.097Z,0.30
2018-12-17T07:10:51.497Z,0.39
2018-12-17T07:13:18.908Z,0.37
2018-12-17T07:15:46.304Z,0.41
2018-12-17T07:18:13.706Z,0.53
2018-12-17T07:20:41.188Z,0.60
2018-12-17T07:23:08.582Z,0.55
2018-12-17T07:25:35.990Z,0.55
2018-12-17T07:28:03.388Z,0.53
2018-12-17T07:30:30.782Z,0.52
2018-12-17T07:32:58.187Z,0.51
2018-12-17T07:35:25.593Z,0.52
2018-12-17T07:37:53.015Z,0.55
2018-12-17T07:40:20.419Z,0.44
2018-12-17T07:42:47.814Z,0.53
2018-12-17T07:45:15.227Z,0.56
2018-12-17T07:47:42.644Z,0.55
2018-12-17T07:50:10.042Z,0.52
2018-12-17T07:52:37.436Z,0.52
2018-12-17T07:55:05.147Z,0.62
2018-12-17T07:57:32.553Z,0.58
2018-12-17T07:59:59.946Z,0.63
2018-12-17T08:02:27.360Z,0.58
2018-12-17T08:04:54.762Z,0.61
2018-12-17T08:07:22.163Z,0.72
2018-12-17T08:09:49.890Z,0.77
2018-12-17T08:12:17.289Z,0.69
2018-12-17T08:14:44.692Z,0.67
2018-12-17T08:17:12.222Z,0.69
2018-12-17T08:19:39.628Z,0.75
2018-12-17T08:22:07.111Z,0.72
2018-12-17T08:24:34.606Z,0.68
2018-12-17T08:27:02.007Z,0.66
2018-12-17T08:29:29.495Z,0.66
2018-12-17T08:31:56.916Z,0.75
2018-12-17T08:34:24.336Z,0.72
2018-12-17T08:36:51.739Z,0.73
2018-12-17T08:39:19.136Z,0.68
2018-12-17T08:41:46.550Z,0.57
2018-12-17T08:44:14.032Z,0.60
2018-12-17T08:46:41.528Z,0.65
2018-12-17T08:49:08.926Z,0.63
2018-12-17T08:51:36.561Z,0.79
2018-12-17T08:54:03.957Z,0.77
2018-12-17T08:56:31.452Z,0.81
2018-12-17T08:58:58.842Z,0.84
2018-12-17T09:01:26.241Z,0.87
2018-12-17T09:03:53.642Z,0.81
2018-12-17T09:06:21.039Z,0.86
2018-12-17T09:08:48.445Z,0.92
2018-12-17T09:11:15.845Z,0.81
2018-12-17T09:13:43.512Z,0.78
2018-12-17T09:16:10.903Z,0.86
2018-12-17T09:18:38.308Z,0.80
2018-12-17T09:21:05.706Z,0.84
2018-12-17T09:23:33.103Z,0.90
2018-12-17T09:26:00.521Z,0.91
2018-12-17T09:28:27.926Z,0.90
2018-12-17T09:30:55.327Z,1.01
2018-12-17T09:33:22.735Z,0.89
2018-12-17T09:35:50.147Z,0.91
2018-12-17T09:38:17.546Z,0.92
2018-12-17T09:40:44.960Z,0.89
2018-12-17T09:43:12.373Z,0.88
2018-12-17T09:45:39.788Z,1.00
2018-12-17T09:48:07.186Z,0.99
2018-12-17T09:50:34.598Z,0.99
2018-12-17T09:53:02.097Z,1.04
2018-12-17T09:55:29.502Z,1.03
2018-12-17T09:57:56.915Z,1.00
2018-12-17T10:00:25.604Z,1.08
2018-12-17T10:02:53.304Z,1.04
2018-12-17T10:05:20.705Z,1.16
2018-12-17T10:07:48.179Z,1.27
2018-12-17T10:10:15.572Z,1.09
2018-12-17T10:12:42.958Z,1.12
2018-12-17T10:15:10.361Z,1.12
2018-12-17T10:17:37.750Z,1.21
2018-12-17T10:20:05.548Z,1.30
2018-12-17T10:22:32.934Z,1.30
2018-12-17T10:25:00.320Z,1.25
2018-12-17T10:27:27.706Z,1.34
2018-12-17T10:29:55.097Z,1.39
2018-12-17T10:32:22.507Z,1.52
2018-12-17T10:34:49.915Z,1.37
2018-12-17T10:37:17.323Z,1.31
2018-12-17T10:39:44.715Z,1.36
2018-12-17T10:42:12.124Z,1.36
2018-12-17T10:44:39.518Z,1.43
2018-12-17T10:47:06.912Z,1.46
2018-12-17T10:49:34.402Z,1.51
2018-12-17T10:52:01.804Z,1.59
2018-12-17T10:54:29.203Z,1.50
2018-12-17T10:56:56.799Z,1.37
2018-12-17T10:59:24.213Z,1.49
2018-12-17T11:01:54.387Z,1.53
2018-12-17T11:04:23.681Z,1.63
2018-12-17T11:06:51.088Z,1.71
2018-12-17T11:09:18.486Z,1.71
2018-12-17T11:11:45.885Z,1.64
2018-12-17T11:14:13.270Z,1.49
2018-12-17T11:16:40.670Z,1.51
2018-12-17T11:19:08.057Z,1.51
2018-12-17T11:21:35.458Z,1.52
2018-12-17T11:24:02.932Z,1.62
2018-12-17T11:26:30.331Z,1.60
2018-12-17T11:28:57.738Z,1.65
2018-12-17T11:31:25.246Z,1.67
2018-12-17T11:33:52.640Z,1.61
2018-12-17T11:36:20.048Z,1.58
2018-12-17T11:38:47.453Z,1.57
2018-12-17T11:41:14.855Z,1.50
2018-12-17T11:43:43.918Z,1.50
2018-12-17T11:46:11.671Z,1.47
2018-12-17T11:48:39.662Z,1.48
2018-12-17T11:51:07.051Z,1.53
2018-12-17T11:53:34.454Z,1.65
2018-12-17T11:56:01.841Z,1.63
2018-12-17T11:58:29.241Z,1.63
2018-12-17T12:00:57.639Z,1.76
2018-12-17T12:03:25.038Z,1.71
2018-12-17T12:05:52.431Z,1.68
2018-12-17T12:08:19.830Z,1.68
2018-12-17T12:10:47.313Z,1.63
2018-12-17T12:13:14.711Z,1.66
2018-12-17T12:15:42.104Z,1.63
2018-12-17T12:18:09.507Z,1.62
2018-12-17T12:20:36.909Z,1.66
2018-12-17T12:23:04.337Z,1.69
2018-12-17T12:25:31.730Z,1.72
2018-12-17T12:27:59.126Z,1.70
2018-12-17T12:30:26.514Z,1.70
2018-12-17T12:32:53.914Z,1.70
2018-12-17T12:35:21.304Z,1.82
2018-12-17T12:37:48.701Z,1.88
2018-12-17T12:40:16.110Z,1.93
2018-12-17T12:42:43.504Z,1.92
2018-12-17T12:45:10.973Z,1.96
2018-12-17T12:47:38.365Z,2.02
2018-12-17T12:50:07.890Z,2.04
2018-12-17T12:52:35.278Z,2.05
2018-12-17T12:55:02.721Z,2.02
2018-12-17T12:57:30.111Z,2.02
2018-12-17T12:59:57.500Z,1.90
2018-12-17T13:02:24.906Z,1.94
2018-12-17T13:04:52.300Z,1.95
2018-12-17T13:07:19.688Z,1.87
2018-12-17T13:09:47.093Z,1.91
2018-12-17T13:12:14.502Z,1.93
2018-12-17T13:14:41.902Z,1.89
2018-12-17T13:17:30.074Z,1.99
2018-12-17T13:19:57.474Z,1.92
2018-12-17T13:22:24.865Z,2.02
2018-12-17T13:24:52.264Z,1.99
2018-12-17T13:27:19.671Z,2.11
2018-12-17T13:29:47.071Z,1.97
2018-12-17T13:32:14.470Z,2.00
2018-12-17T13:34:41.880Z,2.00
2018-12-17T13:37:09.354Z,2.03
2018-12-17T13:39:36.778Z,2.02
2018-12-17T13:42:04.182Z,1.99
2018-12-17T13:44:31.580Z,2.00
2018-12-17T13:46:58.973Z,1.95
2018-12-17T13:49:26.364Z,1.87
2018-12-17T13:51:59.309Z,1.93
2018-12-17T13:54:26.710Z,1.95
2018-12-17T13:56:54.092Z,1.98
2018-12-17T13:59:21.500Z,2.02
2018-12-17T14:01:51.662Z,1.98
2018-12-17T14:04:18.279Z,1.95
2018-12-17T14:06:45.689Z,1.87
2018-12-17T14:09:13.086Z,1.90
2018-12-17T14:11:40.477Z,1.86
2018-12-17T14:14:07.870Z,1.84
2018-12-17T14:16:40.968Z,1.88
2018-12-17T14:19:14.028Z,1.82
2018-12-17T14:21:47.140Z,1.84
2018-12-17T14:24:14.522Z,1.84
2018-12-17T14:26:41.989Z,1.86
2018-12-17T14:29:09.392Z,1.84
2018-12-17T14:31:36.786Z,1.88
2018-12-17T14:34:04.188Z,1.86
2018-12-17T14:36:31.596Z,1.81
2018-12-17T14:38:59.021Z,1.77
2018-12-17T14:41:26.488Z,1.81
2018-12-17T14:43:55.866Z,1.71
2018-12-17T14:46:23.255Z,1.78
2018-12-17T14:48:50.657Z,1.85
2018-12-17T14:51:18.065Z,1.67
2018-12-17T14:53:45.555Z,1.75
2018-12-17T14:56:12.951Z,1.62
2018-12-17T14:58:44.421Z,1.66
2018-12-17T15:01:09.770Z,1.66
2018-12-17T15:03:37.180Z,1.64
2018-12-17T15:06:04.561Z,1.76
2018-12-17T15:08:31.974Z,1.81
2018-12-17T15:10:59.361Z,1.73
2018-12-17T15:13:26.805Z,1.79
2018-12-17T15:15:54.195Z,1.78
2018-12-17T15:18:21.587Z,1.77
2018-12-17T15:20:48.986Z,1.80
2018-12-17T15:23:16.386Z,1.78
2018-12-17T15:25:43.865Z,1.85
2018-12-17T15:28:11.275Z,1.85
2018-12-17T15:30:38.674Z,1.92
2018-12-17T15:33:06.054Z,1.95
2018-12-17T15:35:33.445Z,1.99
2018-12-17T15:38:00.834Z,1.98
2018-12-17T15:40:28.239Z,2.01
2018-12-17T15:42:55.698Z,1.99
2018-12-17T15:45:23.100Z,2.00
2018-12-17T15:47:50.584Z,2.02
2018-12-17T15:50:17.970Z,1.89
2018-12-17T15:52:45.378Z,1.93
2018-12-17T15:55:12.784Z,1.92
2018-12-17T15:57:40.239Z,1.93
2018-12-17T16:00:09.242Z,1.95
2018-12-17T16:02:36.721Z,1.95
2018-12-17T16:05:05.530Z,1.87
2018-12-17T16:07:33.017Z,1.74
2018-12-17T16:10:00.418Z,1.68
2018-12-17T16:12:27.920Z,1.78
2018-12-17T16:14:55.308Z,1.81
2018-12-17T16:17:22.729Z,1.80
2018-12-17T16:19:50.133Z,1.83
2018-12-17T16:22:17.534Z,1.80
2018-12-17T16:24:44.926Z,1.82
2018-12-17T16:27:19.029Z,1.88
2018-12-17T16:29:41.691Z,1.82
2018-12-17T16:32:09.549Z,1.85
2018-12-17T16:34:36.948Z,1.76
2018-12-17T16:37:04.541Z,1.77
2018-12-17T16:39:31.939Z,1.73
2018-12-17T16:41:59.335Z,1.83
2018-12-17T16:44:26.731Z,1.77
2018-12-17T16:46:54.199Z,1.86
2018-12-17T16:49:21.604Z,1.94
2018-12-17T16:51:48.990Z,1.95
2018-12-17T16:54:16.388Z,2.01
2018-12-17T16:56:43.782Z,1.96
2018-12-17T16:59:11.174Z,1.98
2018-12-17T17:01:38.563Z,1.96
2018-12-17T17:04:05.969Z,1.98
2018-12-17T17:06:33.363Z,1.96
2018-12-17T17:09:00.751Z,1.97
2018-12-17T17:11:28.142Z,1.99
2018-12-17T17:13:55.535Z,2.00
2018-12-17T17:16:22.926Z,1.93
2018-12-17T17:18:50.312Z,1.99
2018-12-17T17:21:17.707Z,2.01
2018-12-17T17:23:45.126Z,1.91
2018-12-17T17:26:12.522Z,1.90
2018-12-17T17:28:39.913Z,1.94
2018-12-17T17:31:07.348Z,2.07
2018-12-17T17:33:34.732Z,2.02
2018-12-17T17:36:02.235Z,2.13
2018-12-17T17:38:29.655Z,2.05
2018-12-17T17:40:57.042Z,2.10
2018-12-17T17:43:24.447Z,2.05
2018-12-17T17:45:51.839Z,1.97
2018-12-17T17:48:19.321Z,1.97
2018-12-17T17:50:46.808Z,2.07
2018-12-17T17:53:14.202Z,2.03
2018-12-17T17:55:41.606Z,1.99
2018-12-17T17:58:09.014Z,1.98
2018-12-17T18:00:36.413Z,2.07
2018-12-17T18:03:04.718Z,2.06
2018-12-17T18:05:32.124Z,2.17
2018-12-17T18:07:59.575Z,2.13
2018-12-17T18:10:26.990Z,2.12
2018-12-17T18:12:54.373Z,2.12
2018-12-17T18:15:22.170Z,2.18
2018-12-17T18:17:49.605Z,2.16
2018-12-17T18:20:16.989Z,2.05
2018-12-17T18:22:44.377Z,2.07
2018-12-17T18:25:11.769Z,2.08
2018-12-17T18:27:39.153Z,2.03
2018-12-17T18:30:06.683Z,2.12
2018-12-17T18:32:34.080Z,2.14
2018-12-17T18:35:01.474Z,2.14
2018-12-17T18:37:28.949Z,2.21
2018-12-17T18:39:56.523Z,2.20
2018-12-17T18:42:23.958Z,2.19
2018-12-17T18:44:51.369Z,2.19
2018-12-17T18:47:25.439Z,2.10
2018-12-17T18:49:48.128Z,2.08
2018-12-17T18:52:16.333Z,2.20
2018-12-17T18:54:43.724Z,2.27
2018-12-17T18:57:11.156Z,2.21
2018-12-17T18:59:38.554Z,2.15
2018-12-17T19:02:06.955Z,2.24
2018-12-17T19:04:34.351Z,2.24
2018-12-17T19:07:01.752Z,2.29
2018-12-17T19:09:29.299Z,2.27
2018-12-17T19:11:56.726Z,2.26
2018-12-17T19:14:24.115Z,2.41
2018-12-17T19:16:51.535Z,2.19
2018-12-17T19:19:19.018Z,2.35
2018-12-17T19:21:46.419Z,2.36
2018-12-17T19:24:13.818Z,2.39
2018-12-17T19:26:41.210Z,2.39
2018-12-17T19:29:08.622Z,2.33
2018-12-17T19:31:36.048Z,2.32
2018-12-17T19:34:03.445Z,2.35
2018-12-17T19:36:30.831Z,2.30
2018-12-17T19:38:58.311Z,2.27
2018-12-17T19:41:25.705Z,2.26
2018-12-17T19:43:53.094Z,2.33
2018-12-17T19:46:20.509Z,2.25
2018-12-17T19:48:47.917Z,2.22
2018-12-17T19:51:15.490Z,2.32
2018-12-17T19:53:43.419Z,2.39
2018-12-17T19:56:10.814Z,2.40
2018-12-17T19:58:38.217Z,2.46
2018-12-17T20:01:05.785Z,2.51
2018-12-17T20:03:33.172Z,2.54
2018-12-17T20:06:00.643Z,2.39
2018-12-17T20:08:28.166Z,2.42
2018-12-17T20:10:55.556Z,2.40
2018-12-17T20:13:22.950Z,2.48
2018-12-17T20:15:50.325Z,2.36
2018-12-17T20:18:17.733Z,2.44
2018-12-17T20:20:45.149Z,2.42
2018-12-17T20:23:12.542Z,2.39
2018-12-17T20:25:39.934Z,2.39
2018-12-17T20:28:07.325Z,2.37
2018-12-17T20:30:34.704Z,2.40
2018-12-17T20:33:02.086Z,2.51
2018-12-17T20:35:29.569Z,2.44
2018-12-17T20:37:57.016Z,2.57
2018-12-17T20:40:24.450Z,2.60
2018-12-17T20:42:51.826Z,2.63
2018-12-17T20:45:19.319Z,2.56
2018-12-17T20:47:46.722Z,2.63
2018-12-17T20:50:14.240Z,2.60
2018-12-17T20:52:41.694Z,2.59
2018-12-17T20:55:09.094Z,2.65
2018-12-17T20:57:36.487Z,2.73
2018-12-17T21:00:06.067Z,2.86
2018-12-17T21:02:33.460Z,2.73
2018-12-17T21:05:00.865Z,2.71
2018-12-17T21:07:28.279Z,2.79
2018-12-17T21:09:55.672Z,2.80
2018-12-17T21:12:23.080Z,2.75
2018-12-17T21:14:50.458Z,2.61
2018-12-17T21:17:17.850Z,2.63
2018-12-17T21:19:45.256Z,2.67
2018-12-17T21:22:12.646Z,2.76
2018-12-17T21:24:40.037Z,2.84
2018-12-17T21:27:07.428Z,2.72
2018-12-17T21:29:34.818Z,2.73
2018-12-17T21:32:02.207Z,2.76
2018-12-17T21:34:29.618Z,2.87
2018-12-17T21:36:57.008Z,2.81
2018-12-17T21:39:24.408Z,2.86
2018-12-17T21:41:51.802Z,2.78
2018-12-17T21:44:19.190Z,2.85
2018-12-17T21:46:46.606Z,2.82
2018-12-17T21:49:14.011Z,2.76
2018-12-17T21:51:41.382Z,2.90
2018-12-17T21:54:08.794Z,2.88
2018-12-17T21:56:36.175Z,2.89
2018-12-17T21:59:03.562Z,2.89
2018-12-17T22:01:30.959Z,2.97
2018-12-17T22:03:58.369Z,2.92
2018-12-17T22:06:25.752Z,2.94
2018-12-17T22:08:53.142Z,3.01
2018-12-17T22:11:20.555Z,3.01
2018-12-17T22:13:47.961Z,2.96
2018-12-17T22:16:15.430Z,2.99
2018-12-17T22:18:42.826Z,3.04
2018-12-17T22:21:10.206Z,3.07
2018-12-17T22:23:37.621Z,3.13
2018-12-17T22:26:05.009Z,3.10
2018-12-17T22:28:32.417Z,3.10
2018-12-17T22:30:59.809Z,3.15
2018-12-17T22:33:27.210Z,3.17
2018-12-17T22:35:54.609Z,3.23
2018-12-17T22:38:22.033Z,3.26
2018-12-17T22:40:49.429Z,3.28
2018-12-17T22:43:16.821Z,3.30
2018-12-17T22:45:44.314Z,3.30
2018-12-17T22:48:11.700Z,3.26
2018-12-17T22:50:39.100Z,3.30
2018-12-17T22:53:06.501Z,3.30
2018-12-17T22:55:33.894Z,3.29
2018-12-17T22:58:01.323Z,3.32
2018-12-17T23:00:28.730Z,3.32
2018-12-17T23:02:56.122Z,3.43
2018-12-17T23:05:23.514Z,3.45
2018-12-17T23:07:50.943Z,3.51
2018-12-17T23:10:32.037Z,3.45
2018-12-17T23:13:11.329Z,3.46
2018-12-17T23:15:50.754Z,3.50
2018-12-17T23:18:17.686Z,3.51
2018-12-17T23:20:45.081Z,3.58
2018-12-17T23:23:12.481Z,3.58
2018-12-17T23:25:39.871Z,3.64
2018-12-17T23:28:08.183Z,3.62
2018-12-17T23:30:35.596Z,3.55
2018-12-17T23:33:02.987Z,3.58
2018-12-17T23:35:30.389Z,3.66
2018-12-17T23:37:57.790Z,3.69
2018-12-17T23:40:25.185Z,3.66
2018-12-17T23:42:52.592Z,3.62
2018-12-17T23:45:20.088Z,3.56
2018-12-17T23:47:47.892Z,3.47
2018-12-17T23:50:15.302Z,3.59
2018-12-17T23:52:42.691Z,3.64
2018-12-17T23:55:10.081Z,3.67
2018-12-17T23:57:37.474Z,3.66
